createdAt,value
2017-12-02T00:00:22.988Z,1009
2017-12-02T00:01:23.001Z,1009.02
2017-12-02T00:02:23.010Z,1009.05
2017-12-02T00:03:23.025Z,1009.09
2017-12-02T00:04:23.033Z,1009.09
2017-12-02T00:05:23.044Z,1009.12
2017-12-02T00:06:23.056Z,1009.16
2017-12-02T00:07:23.068Z,1009.16
2017-12-02T00:08:23.078Z,1009.18
2017-12-02T00:09:23.089Z,1009.19
2017-12-02T00:10:23.100Z,1009.21
2017-12-02T00:11:23.111Z,1009.25
2017-12-02T00:12:23.122Z,1009.29
2017-12-02T00:13:23.132Z,1009.32
2017-12-02T00:14:23.145Z,1009.29
2017-12-02T00:15:23.158Z,1009.35
2017-12-02T00:16:23.167Z,1009.36
2017-12-02T00:17:23.178Z,1009.37
2017-12-02T00:18:23.189Z,1009.4
2017-12-02T00:19:23.201Z,1009.36
2017-12-02T00:20:23.212Z,1009.37
2017-12-02T00:21:23.223Z,1009.36
2017-12-02T00:22:23.233Z,1009.37
2017-12-02T00:23:23.244Z,1009.38
2017-12-02T00:24:23.255Z,1009.36
2017-12-02T00:25:23.268Z,1009.39
2017-12-02T00:26:23.278Z,1009.38
2017-12-02T00:27:23.290Z,1009.37
2017-12-02T00:28:23.302Z,1009.38
2017-12-02T00:29:23.311Z,1009.39
2017-12-02T00:30:23.322Z,1009.4
2017-12-02T00:31:23.332Z,1009.43
2017-12-02T00:32:23.345Z,1009.43
2017-12-02T00:33:23.354Z,1009.42
2017-12-02T00:34:23.368Z,1009.43
2017-12-02T00:35:23.377Z,1009.46
2017-12-02T00:36:23.390Z,1009.47
2017-12-02T00:37:23.403Z,1009.45
2017-12-02T00:38:23.419Z,1009.48
2017-12-02T00:39:23.422Z,1009.5
2017-12-02T00:40:23.433Z,1009.48
2017-12-02T00:41:23.443Z,1009.51
2017-12-02T00:42:23.455Z,1009.48
2017-12-02T00:43:23.465Z,1009.53
2017-12-02T00:44:23.477Z,1009.52
2017-12-02T00:45:23.488Z,1009.56
2017-12-02T00:46:23.498Z,1009.56
2017-12-02T00:47:23.511Z,1009.57
2017-12-02T00:48:23.521Z,1009.61
2017-12-02T00:49:23.534Z,1009.61
2017-12-02T00:50:23.543Z,1009.59
2017-12-02T00:51:23.554Z,1009.61
2017-12-02T00:52:23.565Z,1009.63
2017-12-02T00:53:23.577Z,1009.64
2017-12-02T00:54:23.589Z,1009.6
2017-12-02T00:55:23.600Z,1009.64
2017-12-02T00:56:23.614Z,1009.64
2017-12-02T00:57:23.623Z,1009.68
2017-12-02T00:58:23.632Z,1009.64
2017-12-02T00:59:23.643Z,1009.64
2017-12-02T01:00:23.654Z,1009.66
2017-12-02T01:01:23.666Z,1009.65
2017-12-02T01:02:23.679Z,1009.65
2017-12-02T01:03:23.687Z,1009.68
2017-12-02T01:04:23.700Z,1009.66
2017-12-02T01:05:23.709Z,1009.7
2017-12-02T01:06:23.721Z,1009.71
2017-12-02T01:07:23.732Z,1009.74
2017-12-02T01:08:23.743Z,1009.72
2017-12-02T01:09:23.755Z,1009.74
2017-12-02T01:10:23.768Z,1009.75
2017-12-02T01:11:23.777Z,1009.77
2017-12-02T01:12:23.789Z,1009.74
2017-12-02T01:13:23.799Z,1009.76
2017-12-02T01:14:23.814Z,1009.76
2017-12-02T01:15:23.821Z,1009.78
2017-12-02T01:16:23.831Z,1009.79
2017-12-02T01:17:23.844Z,1009.76
2017-12-02T01:18:23.856Z,1009.8
2017-12-02T01:19:23.863Z,1009.79
2017-12-02T01:20:23.880Z,1009.78
2017-12-02T01:21:23.888Z,1009.8
2017-12-02T01:22:23.899Z,1009.82
2017-12-02T01:23:23.909Z,1009.86
2017-12-02T01:24:23.921Z,1009.89
2017-12-02T01:25:23.933Z,1009.9
2017-12-02T01:26:23.942Z,1009.94
2017-12-02T01:27:23.952Z,1009.93
2017-12-02T01:28:23.965Z,1009.95
2017-12-02T01:29:23.977Z,1009.92
2017-12-02T01:30:23.987Z,1009.94
2017-12-02T01:31:23.998Z,1009.88
2017-12-02T01:32:24.011Z,1009.91
2017-12-02T01:33:24.018Z,1009.91
2017-12-02T01:34:24.035Z,1009.95
2017-12-02T01:35:24.046Z,1009.93
2017-12-02T01:36:24.054Z,1009.94
2017-12-02T01:37:24.065Z,1009.95
2017-12-02T01:38:24.076Z,1009.97
2017-12-02T01:39:24.085Z,1009.99
2017-12-02T01:40:26.253Z,1010
2017-12-02T01:41:24.110Z,1010.01
2017-12-02T01:42:24.122Z,1010.02
2017-12-02T01:43:24.133Z,1010
2017-12-02T01:44:24.143Z,1010.02
2017-12-02T01:45:24.154Z,1010.02
2017-12-02T01:46:24.167Z,1010.02
2017-12-02T01:47:24.175Z,1010.09
2017-12-02T01:48:24.189Z,1010.06
2017-12-02T01:49:24.200Z,1010.06
2017-12-02T01:50:24.211Z,1010.07
2017-12-02T01:51:24.220Z,1010.08
2017-12-02T01:52:24.233Z,1010.1
2017-12-02T01:53:24.242Z,1010.12
2017-12-02T01:54:24.256Z,1010.11
2017-12-02T01:55:24.266Z,1010.17
2017-12-02T01:56:24.278Z,1010.19
2017-12-02T01:57:24.290Z,1010.21
2017-12-02T01:58:24.300Z,1010.19
2017-12-02T01:59:24.311Z,1010.26
2017-12-02T02:00:24.319Z,1010.22
2017-12-02T02:01:24.331Z,1010.26
2017-12-02T02:02:24.343Z,1010.23
2017-12-02T02:03:24.353Z,1010.24
2017-12-02T02:04:24.365Z,1010.25
2017-12-02T02:05:24.380Z,1010.26
2017-12-02T02:06:24.386Z,1010.24
2017-12-02T02:07:24.398Z,1010.27
2017-12-02T02:08:24.410Z,1010.27
2017-12-02T02:09:24.420Z,1010.28
2017-12-02T02:10:24.430Z,1010.31
2017-12-02T02:11:24.440Z,1010.27
2017-12-02T02:12:24.453Z,1010.33
2017-12-02T02:13:24.462Z,1010.32
2017-12-02T02:14:24.474Z,1010.33
2017-12-02T02:15:24.485Z,1010.3
2017-12-02T02:16:24.498Z,1010.35
2017-12-02T02:17:24.509Z,1010.37
2017-12-02T02:18:24.519Z,1010.37
2017-12-02T02:19:24.532Z,1010.4
2017-12-02T02:20:24.541Z,1010.37
2017-12-02T02:21:24.554Z,1010.34
2017-12-02T02:22:24.560Z,1010.42
2017-12-02T02:23:24.573Z,1010.37
2017-12-02T02:24:24.586Z,1010.39
2017-12-02T02:25:24.596Z,1010.36
2017-12-02T02:26:24.609Z,1010.4
2017-12-02T02:27:24.619Z,1010.39
2017-12-02T02:28:24.628Z,1010.37
2017-12-02T02:29:24.639Z,1010.38
2017-12-02T02:30:24.652Z,1010.4
2017-12-02T02:31:24.873Z,1010.39
2017-12-02T02:32:24.676Z,1010.37
2017-12-02T02:33:24.683Z,1010.38
2017-12-02T02:34:24.696Z,1010.36
2017-12-02T02:35:24.708Z,1010.4
2017-12-02T02:36:24.722Z,1010.36
2017-12-02T02:37:24.729Z,1010.4
2017-12-02T02:38:24.740Z,1010.39
2017-12-02T02:39:24.750Z,1010.4
2017-12-02T02:40:24.761Z,1010.42
2017-12-02T02:41:24.773Z,1010.43
2017-12-02T02:42:24.784Z,1010.42
2017-12-02T02:43:24.794Z,1010.43
2017-12-02T02:44:24.809Z,1010.43
2017-12-02T02:45:24.817Z,1010.45
2017-12-02T02:46:24.827Z,1010.44
2017-12-02T02:47:24.837Z,1010.47
2017-12-02T02:48:24.851Z,1010.42
2017-12-02T02:49:24.861Z,1010.44
2017-12-02T02:50:24.871Z,1010.45
2017-12-02T02:51:24.881Z,1010.43
2017-12-02T02:52:24.896Z,1010.46
2017-12-02T02:53:24.905Z,1010.46
2017-12-02T02:54:24.919Z,1010.48
2017-12-02T02:55:24.925Z,1010.52
2017-12-02T02:56:24.936Z,1010.54
2017-12-02T02:57:24.946Z,1010.51
2017-12-02T02:58:24.960Z,1010.54
2017-12-02T02:59:24.969Z,1010.54
2017-12-02T03:00:24.982Z,1010.53
2017-12-02T03:01:24.995Z,1010.58
2017-12-02T03:02:25.002Z,1010.59
2017-12-02T03:03:25.014Z,1010.63
2017-12-02T03:04:25.025Z,1010.61
2017-12-02T03:05:25.037Z,1010.66
2017-12-02T03:06:25.048Z,1010.69
2017-12-02T03:07:25.060Z,1010.69
2017-12-02T03:08:25.070Z,1010.72
2017-12-02T03:09:25.081Z,1010.72
2017-12-02T03:10:25.092Z,1010.74
2017-12-02T03:11:25.100Z,1010.73
2017-12-02T03:12:25.113Z,1010.75
2017-12-02T03:13:25.124Z,1010.78
2017-12-02T03:14:25.136Z,1010.74
2017-12-02T03:15:25.149Z,1010.78
2017-12-02T03:16:25.158Z,1010.78
2017-12-02T03:17:25.169Z,1010.81
2017-12-02T03:18:25.179Z,1010.8
2017-12-02T03:19:25.193Z,1010.79
2017-12-02T03:20:25.200Z,1010.83
2017-12-02T03:21:25.212Z,1010.82
2017-12-02T03:22:25.224Z,1010.8
2017-12-02T03:23:25.235Z,1010.79
2017-12-02T03:24:25.249Z,1010.79
2017-12-02T03:25:25.256Z,1010.75
2017-12-02T03:26:25.268Z,1010.81
2017-12-02T03:27:25.277Z,1010.77
2017-12-02T03:28:25.287Z,1010.85
2017-12-02T03:29:25.300Z,1010.88
2017-12-02T03:30:25.312Z,1010.87
2017-12-02T03:31:25.355Z,1010.85
2017-12-02T03:32:25.333Z,1010.89
2017-12-02T03:33:25.344Z,1010.89
2017-12-02T03:34:25.355Z,1010.94
2017-12-02T03:35:25.366Z,1010.97
2017-12-02T03:36:25.377Z,1010.92
2017-12-02T03:37:25.388Z,1010.95
2017-12-02T03:38:25.399Z,1010.92
2017-12-02T03:39:25.410Z,1010.94
2017-12-02T03:40:25.421Z,1010.93
2017-12-02T03:41:25.431Z,1010.94
2017-12-02T03:42:25.442Z,1010.93
2017-12-02T03:43:25.455Z,1010.93
2017-12-02T03:44:25.463Z,1010.93
2017-12-02T03:45:25.473Z,1010.92
2017-12-02T03:46:25.484Z,1010.96
2017-12-02T03:47:25.497Z,1010.93
2017-12-02T03:48:25.509Z,1011
2017-12-02T03:49:25.520Z,1010.99
2017-12-02T03:50:25.532Z,1011.01
2017-12-02T03:51:26.741Z,1011.01
2017-12-02T03:52:25.551Z,1011.03
2017-12-02T03:53:25.562Z,1011.03
2017-12-02T03:54:25.574Z,1011.07
2017-12-02T03:55:25.586Z,1011.01
2017-12-02T03:56:25.594Z,1011.04
2017-12-02T03:57:25.605Z,1011.02
2017-12-02T03:58:25.617Z,1011.08
2017-12-02T03:59:25.635Z,1011.07
2017-12-02T04:00:25.636Z,1011.08
2017-12-02T04:01:25.649Z,1011.1
2017-12-02T04:02:25.662Z,1011.12
2017-12-02T04:03:25.670Z,1011.12
2017-12-02T04:04:25.682Z,1011.1
2017-12-02T04:05:25.692Z,1011.09
2017-12-02T04:06:25.706Z,1011.16
2017-12-02T04:07:25.714Z,1011.16
2017-12-02T04:08:25.727Z,1011.17
2017-12-02T04:09:25.738Z,1011.16
2017-12-02T04:10:25.750Z,1011.19
2017-12-02T04:11:25.760Z,1011.19
2017-12-02T04:12:25.771Z,1011.18
2017-12-02T04:13:25.781Z,1011.18
2017-12-02T04:14:25.792Z,1011.22
2017-12-02T04:15:25.806Z,1011.21
2017-12-02T04:16:25.813Z,1011.18
2017-12-02T04:17:25.825Z,1011.12
2017-12-02T04:18:25.835Z,1011.19
2017-12-02T04:19:25.848Z,1011.18
2017-12-02T04:20:25.859Z,1011.18
2017-12-02T04:22:25.880Z,1011.18
2017-12-02T04:23:25.891Z,1011.17
2017-12-02T04:24:25.901Z,1011.17
2017-12-02T04:25:25.946Z,1011.19
2017-12-02T04:26:25.923Z,1011.15
2017-12-02T04:27:25.935Z,1011.21
2017-12-02T04:28:25.946Z,1011.21
2017-12-02T04:29:25.959Z,1011.24
2017-12-02T04:30:26.001Z,1011.29
2017-12-02T04:31:25.979Z,1011.28
2017-12-02T04:32:25.991Z,1011.28
2017-12-02T04:33:26.001Z,1011.35
2017-12-02T04:34:26.010Z,1011.29
2017-12-02T04:35:26.024Z,1011.28
2017-12-02T04:36:26.033Z,1011.31
2017-12-02T04:37:26.046Z,1011.32
2017-12-02T04:38:26.057Z,1011.28
2017-12-02T04:39:26.066Z,1011.27
2017-12-02T04:40:26.077Z,1011.25
2017-12-02T04:42:26.096Z,1011.27
2017-12-02T04:43:26.108Z,1011.23
2017-12-02T04:44:26.119Z,1011.24
2017-12-02T04:45:26.130Z,1011.23
2017-12-02T04:46:26.142Z,1011.25
2017-12-02T04:47:26.153Z,1011.24
2017-12-02T04:48:26.165Z,1011.28
2017-12-02T04:49:26.175Z,1011.27
2017-12-02T04:50:26.185Z,1011.27
2017-12-02T04:51:26.196Z,1011.31
2017-12-02T04:52:26.212Z,1011.27
2017-12-02T04:53:26.218Z,1011.31
2017-12-02T04:54:26.228Z,1011.29
2017-12-02T04:55:26.260Z,1011.31
2017-12-02T04:56:26.252Z,1011.32
2017-12-02T04:57:26.260Z,1011.33
2017-12-02T04:58:26.273Z,1011.31
2017-12-02T04:59:26.283Z,1011.33
2017-12-02T05:00:26.296Z,1011.33
2017-12-02T05:01:26.307Z,1011.38
2017-12-02T05:02:26.313Z,1011.38
2017-12-02T05:03:26.326Z,1011.42
2017-12-02T05:04:26.338Z,1011.41
2017-12-02T05:05:26.346Z,1011.42
2017-12-02T05:06:26.358Z,1011.38
2017-12-02T05:07:26.370Z,1011.4
2017-12-02T05:08:26.381Z,1011.42
2017-12-02T05:09:26.391Z,1011.41
2017-12-02T05:10:26.403Z,1011.44
2017-12-02T05:11:26.412Z,1011.47
2017-12-02T05:12:26.430Z,1011.44
2017-12-02T05:13:26.435Z,1011.47
2017-12-02T05:14:26.447Z,1011.39
2017-12-02T05:15:26.462Z,1011.42
2017-12-02T05:16:26.469Z,1011.39
2017-12-02T05:17:26.480Z,1011.41
2017-12-02T05:18:26.489Z,1011.45
2017-12-02T05:19:26.500Z,1011.43
2017-12-02T05:20:26.509Z,1011.43
2017-12-02T05:21:26.521Z,1011.43
2017-12-02T05:22:26.532Z,1011.43
2017-12-02T05:23:26.543Z,1011.48
2017-12-02T05:24:26.556Z,1011.48
2017-12-02T05:25:26.566Z,1011.5
2017-12-02T05:26:26.577Z,1011.52
2017-12-02T05:27:26.587Z,1011.54
2017-12-02T05:28:26.597Z,1011.54
2017-12-02T05:29:26.609Z,1011.54
2017-12-02T05:30:26.618Z,1011.57
2017-12-02T05:31:26.630Z,1011.58
2017-12-02T05:32:26.642Z,1011.57
2017-12-02T05:33:26.652Z,1011.56
2017-12-02T05:34:26.664Z,1011.6
2017-12-02T05:35:26.672Z,1011.6
2017-12-02T05:36:26.684Z,1011.63
2017-12-02T05:37:26.695Z,1011.58
2017-12-02T05:38:26.720Z,1011.66
2017-12-02T05:39:26.716Z,1011.62
2017-12-02T05:40:26.728Z,1011.65
2017-12-02T05:41:26.737Z,1011.6
2017-12-02T05:42:26.757Z,1011.63
2017-12-02T05:43:26.762Z,1011.65
2017-12-02T05:44:26.780Z,1011.63
2017-12-02T05:45:26.783Z,1011.65
2017-12-02T05:46:26.791Z,1011.6
2017-12-02T05:47:26.807Z,1011.63
2017-12-02T05:48:26.814Z,1011.65
2017-12-02T05:49:26.838Z,1011.63
2017-12-02T05:50:26.834Z,1011.67
2017-12-02T05:51:26.845Z,1011.67
2017-12-02T05:52:26.857Z,1011.7
2017-12-02T05:53:26.871Z,1011.74
2017-12-02T05:54:26.881Z,1011.7
2017-12-02T05:55:26.895Z,1011.72
2017-12-02T05:56:26.900Z,1011.74
2017-12-02T05:57:26.913Z,1011.74
2017-12-02T05:58:26.924Z,1011.77
2017-12-02T05:59:26.935Z,1011.78
2017-12-02T06:00:26.944Z,1011.82
2017-12-02T06:01:26.972Z,1011.82
2017-12-02T06:02:26.972Z,1011.8
2017-12-02T06:03:26.978Z,1011.84
2017-12-02T06:04:26.989Z,1011.77
2017-12-02T06:05:27.000Z,1011.8
2017-12-02T06:06:27.011Z,1011.81
2017-12-02T06:07:27.021Z,1011.84
2017-12-02T06:08:27.030Z,1011.82
2017-12-02T06:09:27.043Z,1011.84
2017-12-02T06:10:27.054Z,1011.78
2017-12-02T06:11:27.063Z,1011.8
2017-12-02T06:12:27.075Z,1011.82
2017-12-02T06:13:27.086Z,1011.84
2017-12-02T06:14:27.104Z,1011.86
2017-12-02T06:15:27.108Z,1011.89
2017-12-02T06:16:27.117Z,1011.86
2017-12-02T06:17:27.137Z,1011.87
2017-12-02T06:18:27.139Z,1011.86
2017-12-02T06:19:27.151Z,1011.81
2017-12-02T06:20:27.163Z,1011.82
2017-12-02T06:21:27.176Z,1011.87
2017-12-02T06:22:27.185Z,1011.91
2017-12-02T06:23:27.195Z,1011.9
2017-12-02T06:24:27.205Z,1011.9
2017-12-02T06:25:27.230Z,1011.87
2017-12-02T06:26:27.227Z,1011.89
2017-12-02T06:27:27.237Z,1011.89
2017-12-02T06:28:27.248Z,1011.93
2017-12-02T06:29:27.262Z,1011.94
2017-12-02T06:30:27.272Z,1011.91
2017-12-02T06:31:27.280Z,1011.91
2017-12-02T06:32:27.292Z,1011.95
2017-12-02T06:33:27.303Z,1011.95
2017-12-02T06:34:27.313Z,1011.94
2017-12-02T06:35:27.327Z,1011.95
2017-12-02T06:36:27.339Z,1011.95
2017-12-02T06:37:27.346Z,1011.93
2017-12-02T06:38:27.359Z,1011.93
2017-12-02T06:39:27.370Z,1011.93
2017-12-02T06:40:27.377Z,1011.9
2017-12-02T06:41:27.388Z,1011.93
2017-12-02T06:42:27.399Z,1011.94
2017-12-02T06:43:27.410Z,1011.94
2017-12-02T06:44:27.419Z,1011.99
2017-12-02T06:45:27.432Z,1011.98
2017-12-02T06:46:27.441Z,1011.99
2017-12-02T06:47:27.454Z,1011.99
2017-12-02T06:48:27.464Z,1012
2017-12-02T06:49:27.677Z,1012
2017-12-02T06:50:27.484Z,1012
2017-12-02T06:51:27.496Z,1011.98
2017-12-02T06:52:27.506Z,1011.97
2017-12-02T06:53:27.521Z,1011.99
2017-12-02T06:54:27.530Z,1011.99
2017-12-02T06:55:27.540Z,1011.98
2017-12-02T06:56:27.551Z,1012.03
2017-12-02T06:57:27.561Z,1012.05
2017-12-02T06:58:27.572Z,1012.04
2017-12-02T06:59:27.589Z,1012.05
2017-12-02T07:00:27.592Z,1012.1
2017-12-02T07:01:27.604Z,1012.06
2017-12-02T07:02:27.614Z,1012.11
2017-12-02T07:03:27.629Z,1012.12
2017-12-02T07:04:27.636Z,1012.1
2017-12-02T07:05:27.649Z,1012.12
2017-12-02T07:06:27.659Z,1012.1
2017-12-02T07:07:27.672Z,1012.1
2017-12-02T07:08:27.682Z,1012.1
2017-12-02T07:09:27.693Z,1012.13
2017-12-02T07:10:27.760Z,1012.18
2017-12-02T07:11:27.712Z,1012.16
2017-12-02T07:12:27.724Z,1012.17
2017-12-02T07:13:27.734Z,1012.21
2017-12-02T07:14:27.743Z,1012.25
2017-12-02T07:15:27.757Z,1012.26
2017-12-02T07:16:27.765Z,1012.31
2017-12-02T07:17:27.776Z,1012.27
2017-12-02T07:18:27.788Z,1012.26
2017-12-02T07:19:27.800Z,1012.26
2017-12-02T07:20:27.809Z,1012.29
2017-12-02T07:21:27.820Z,1012.34
2017-12-02T07:22:27.832Z,1012.34
2017-12-02T07:23:27.842Z,1012.3
2017-12-02T07:24:27.851Z,1012.35
2017-12-02T07:25:27.864Z,1012.29
2017-12-02T07:26:27.873Z,1012.29
2017-12-02T07:27:27.886Z,1012.29
2017-12-02T07:28:27.897Z,1012.28
2017-12-02T07:29:27.906Z,1012.27
2017-12-02T07:30:27.919Z,1012.26
2017-12-02T07:31:27.931Z,1012.26
2017-12-02T07:32:27.939Z,1012.26
2017-12-02T07:33:27.953Z,1012.31
2017-12-02T07:34:27.964Z,1012.34
2017-12-02T07:35:27.972Z,1012.32
2017-12-02T07:36:27.983Z,1012.3
2017-12-02T07:37:27.993Z,1012.29
2017-12-02T07:38:28.007Z,1012.35
2017-12-02T07:39:28.016Z,1012.28
2017-12-02T07:40:28.029Z,1012.35
2017-12-02T07:41:28.039Z,1012.34
2017-12-02T07:42:28.050Z,1012.39
2017-12-02T07:43:28.060Z,1012.35
2017-12-02T07:44:28.069Z,1012.36
2017-12-02T07:45:28.082Z,1012.43
2017-12-02T07:46:28.092Z,1012.41
2017-12-02T07:47:28.103Z,1012.43
2017-12-02T07:48:28.113Z,1012.42
2017-12-02T07:49:28.125Z,1012.45
2017-12-02T07:50:28.135Z,1012.46
2017-12-02T07:51:28.145Z,1012.48
2017-12-02T07:52:28.157Z,1012.5
2017-12-02T07:53:28.167Z,1012.55
2017-12-02T07:54:28.179Z,1012.55
2017-12-02T07:55:28.189Z,1012.55
2017-12-02T07:56:28.202Z,1012.54
2017-12-02T07:57:28.212Z,1012.56
2017-12-02T07:58:28.223Z,1012.59
2017-12-02T07:59:28.232Z,1012.56
2017-12-02T08:00:28.243Z,1012.67
2017-12-02T08:01:28.255Z,1012.61
2017-12-02T08:02:28.269Z,1012.6
2017-12-02T08:03:28.275Z,1012.58
2017-12-02T08:04:28.286Z,1012.65
2017-12-02T08:05:28.310Z,1012.6
2017-12-02T08:06:28.310Z,1012.67
2017-12-02T08:07:28.323Z,1012.64
2017-12-02T08:08:28.331Z,1012.67
2017-12-02T08:09:28.343Z,1012.64
2017-12-02T08:10:28.353Z,1012.67
2017-12-02T08:11:28.371Z,1012.69
2017-12-02T08:12:28.375Z,1012.69
2017-12-02T08:13:28.384Z,1012.72
2017-12-02T08:14:28.396Z,1012.74
2017-12-02T08:15:28.410Z,1012.74
2017-12-02T08:16:28.420Z,1012.74
2017-12-02T08:17:28.430Z,1012.72
2017-12-02T08:18:28.440Z,1012.71
2017-12-02T08:19:28.451Z,1012.72
2017-12-02T08:20:28.463Z,1012.7
2017-12-02T08:21:28.475Z,1012.72
2017-12-02T08:22:28.486Z,1012.67
2017-12-02T08:23:28.497Z,1012.69
2017-12-02T08:24:28.508Z,1012.73
2017-12-02T08:25:28.555Z,1012.75
2017-12-02T08:26:28.532Z,1012.75
2017-12-02T08:27:28.540Z,1012.75
2017-12-02T08:28:28.553Z,1012.76
2017-12-02T08:29:28.562Z,1012.76
2017-12-02T08:30:28.575Z,1012.76
2017-12-02T08:31:28.585Z,1012.74
2017-12-02T08:32:28.597Z,1012.81
2017-12-02T08:33:28.608Z,1012.84
2017-12-02T08:34:28.617Z,1012.85
2017-12-02T08:36:52.065Z,1012.88
2017-12-02T08:37:52.075Z,1012.91
2017-12-02T08:38:52.088Z,1012.89
2017-12-02T08:39:52.099Z,1012.94
2017-12-02T08:40:52.110Z,1012.92
2017-12-02T08:41:52.127Z,1012.97
2017-12-02T08:42:52.131Z,1012.91
2017-12-02T08:43:52.144Z,1012.93
2017-12-02T08:44:52.155Z,1012.92
2017-12-02T08:45:52.169Z,1012.9
2017-12-02T08:46:52.178Z,1012.91
2017-12-02T08:47:52.188Z,1012.91
2017-12-02T08:48:52.200Z,1012.95
2017-12-02T08:49:52.210Z,1012.93
2017-12-02T08:50:52.221Z,1012.93
2017-12-02T08:51:52.233Z,1012.98
2017-12-02T08:52:52.244Z,1012.99
2017-12-02T08:53:52.257Z,1012.94
2017-12-02T08:54:52.269Z,1012.96
2017-12-02T08:55:52.279Z,1012.97
2017-12-02T08:56:52.289Z,1013.03
2017-12-02T08:57:52.350Z,1013.05
2017-12-02T08:58:52.312Z,1013.03
2017-12-02T08:59:52.324Z,1013.1
2017-12-02T09:00:52.335Z,1013.05
2017-12-02T09:01:52.346Z,1013.09
2017-12-02T09:02:52.357Z,1013.14
2017-12-02T09:03:52.370Z,1013.14
2017-12-02T09:04:52.381Z,1013.14
2017-12-02T09:05:52.393Z,1013.18
2017-12-02T09:06:52.403Z,1013.18
2017-12-02T09:07:52.414Z,1013.24
2017-12-02T09:08:52.428Z,1013.21
2017-12-02T09:09:52.441Z,1013.22
2017-12-02T09:10:52.449Z,1013.26
2017-12-02T09:11:52.461Z,1013.27
2017-12-02T09:12:52.474Z,1013.3
2017-12-02T09:13:52.482Z,1013.29
2017-12-02T09:14:52.494Z,1013.33
2017-12-02T09:15:52.507Z,1013.34
2017-12-02T09:16:52.517Z,1013.33
2017-12-02T09:17:52.529Z,1013.36
2017-12-02T09:18:52.544Z,1013.38
2017-12-02T09:19:52.554Z,1013.37
2017-12-02T09:20:52.562Z,1013.4
2017-12-02T09:21:52.576Z,1013.44
2017-12-02T09:22:52.596Z,1013.42
2017-12-02T09:23:52.598Z,1013.46
2017-12-02T09:24:52.613Z,1013.49
2017-12-02T09:25:52.622Z,1013.51
2017-12-02T09:26:52.633Z,1013.44
2017-12-02T09:27:52.644Z,1013.47
2017-12-02T09:28:52.657Z,1013.45
2017-12-02T09:29:52.668Z,1013.51
2017-12-02T09:30:52.690Z,1013.46
2017-12-02T09:31:52.690Z,1013.5
2017-12-02T09:32:52.702Z,1013.48
2017-12-02T09:33:52.714Z,1013.45
2017-12-02T09:34:52.760Z,1013.45
2017-12-02T09:35:52.738Z,1013.46
2017-12-02T09:36:52.750Z,1013.46
2017-12-02T09:37:52.762Z,1013.5
2017-12-02T09:38:52.773Z,1013.49
2017-12-02T09:39:52.787Z,1013.51
2017-12-02T09:40:52.796Z,1013.51
2017-12-02T09:41:52.809Z,1013.55
2017-12-02T09:42:52.820Z,1013.54
2017-12-02T09:43:52.833Z,1013.52
2017-12-02T09:44:52.844Z,1013.54
2017-12-02T09:45:52.857Z,1013.57
2017-12-02T09:46:52.869Z,1013.54
2017-12-02T09:47:52.880Z,1013.46
2017-12-02T09:48:52.892Z,1013.46
2017-12-02T09:49:52.904Z,1013.43
2017-12-02T09:50:52.915Z,1013.39
2017-12-02T09:51:52.927Z,1013.4
2017-12-02T09:52:52.939Z,1013.41
2017-12-02T09:53:52.952Z,1013.42
2017-12-02T09:54:52.965Z,1013.38
2017-12-02T09:55:52.977Z,1013.35
2017-12-02T09:56:52.988Z,1013.41
2017-12-02T09:57:52.997Z,1013.39
2017-12-02T09:58:53.013Z,1013.39
2017-12-02T09:59:53.024Z,1013.34
2017-12-02T10:00:53.036Z,1013.35
2017-12-02T10:01:53.047Z,1013.36
2017-12-02T10:02:53.058Z,1013.36
2017-12-02T10:03:53.071Z,1013.35
2017-12-02T10:04:53.084Z,1013.37
2017-12-02T10:05:53.097Z,1013.35
2017-12-02T10:06:53.169Z,1013.34
2017-12-02T10:07:53.120Z,1013.34
2017-12-02T10:08:53.134Z,1013.34
2017-12-02T10:09:53.141Z,1013.37
2017-12-02T10:10:53.156Z,1013.35
2017-12-02T10:11:53.168Z,1013.33
2017-12-02T10:12:53.185Z,1013.32
2017-12-02T10:13:53.192Z,1013.34
2017-12-02T10:14:53.203Z,1013.34
2017-12-02T10:15:53.217Z,1013.37
2017-12-02T10:16:53.228Z,1013.35
2017-12-02T10:17:53.241Z,1013.35
2017-12-02T10:18:53.254Z,1013.34
2017-12-02T10:19:53.266Z,1013.37
2017-12-02T10:20:53.275Z,1013.38
2017-12-02T10:21:53.290Z,1013.45
2017-12-02T10:22:53.311Z,1013.45
2017-12-02T10:23:53.313Z,1013.43
2017-12-02T10:24:53.325Z,1013.42
2017-12-02T10:25:53.342Z,1013.38
2017-12-02T10:26:53.349Z,1013.44
2017-12-02T10:27:53.363Z,1013.42
2017-12-02T10:28:53.373Z,1013.46
2017-12-02T10:29:53.384Z,1013.47
2017-12-02T10:30:53.399Z,1013.48
2017-12-02T10:31:53.409Z,1013.47
2017-12-02T10:32:53.425Z,1013.46
2017-12-02T10:33:53.435Z,1013.48
2017-12-02T10:34:53.447Z,1013.47
2017-12-02T10:35:53.460Z,1013.47
2017-12-02T10:36:53.471Z,1013.46
2017-12-02T10:37:53.482Z,1013.46
2017-12-02T10:38:53.495Z,1013.48
2017-12-02T10:39:53.507Z,1013.47
2017-12-02T10:40:53.520Z,1013.43
2017-12-02T10:41:53.533Z,1013.42
2017-12-02T10:42:53.545Z,1013.4
2017-12-02T10:43:53.556Z,1013.37
2017-12-02T10:44:53.569Z,1013.37
2017-12-02T10:45:53.581Z,1013.36
2017-12-02T10:46:53.596Z,1013.44
2017-12-02T10:47:53.607Z,1013.37
2017-12-02T10:48:53.617Z,1013.4
2017-12-02T10:49:53.631Z,1013.39
2017-12-02T10:50:53.644Z,1013.38
2017-12-02T10:51:53.656Z,1013.37
2017-12-02T10:52:53.666Z,1013.38
2017-12-02T10:53:53.679Z,1013.36
2017-12-02T10:54:53.691Z,1013.32
2017-12-02T10:55:53.703Z,1013.3
2017-12-02T10:56:53.716Z,1013.29
2017-12-02T10:57:53.728Z,1013.29
2017-12-02T10:58:53.742Z,1013.23
2017-12-02T10:59:53.753Z,1013.27
2017-12-02T11:00:53.767Z,1013.29
2017-12-02T11:01:53.777Z,1013.28
2017-12-02T11:02:53.790Z,1013.25
2017-12-02T11:03:53.803Z,1013.23
2017-12-02T11:04:53.814Z,1013.25
2017-12-02T11:05:53.827Z,1013.22
2017-12-02T11:06:53.840Z,1013.23
2017-12-02T11:07:53.859Z,1013.22
2017-12-02T11:08:53.866Z,1013.17
2017-12-02T11:09:53.876Z,1013.17
2017-12-02T11:10:53.900Z,1013.16
2017-12-02T11:11:53.900Z,1013.12
2017-12-02T11:12:53.914Z,1013.13
2017-12-02T11:13:53.928Z,1013.13
2017-12-02T11:14:53.937Z,1013.11
2017-12-02T11:15:53.952Z,1013.11
2017-12-02T11:16:53.963Z,1013.13
2017-12-02T11:17:53.977Z,1013.12
2017-12-02T11:18:53.987Z,1013.12
2017-12-02T11:19:54.000Z,1013.1
2017-12-02T11:20:54.013Z,1013.09
2017-12-02T11:21:54.025Z,1013.09
2017-12-02T11:22:54.040Z,1013.13
2017-12-02T11:23:54.048Z,1013.13
2017-12-02T11:24:54.062Z,1013.14
2017-12-02T11:25:54.077Z,1013.14
2017-12-02T11:26:54.085Z,1013.15
2017-12-02T11:27:54.100Z,1013.2
2017-12-02T11:28:54.112Z,1013.18
2017-12-02T11:29:54.125Z,1013.15
2017-12-02T11:30:54.138Z,1013.17
2017-12-02T11:31:54.150Z,1013.16
2017-12-02T11:32:54.160Z,1013.1
2017-12-02T11:33:54.176Z,1013.15
2017-12-02T11:34:54.189Z,1013.14
2017-12-02T11:35:54.203Z,1013.1
2017-12-02T11:36:54.210Z,1013.15
2017-12-02T11:37:54.224Z,1013.15
2017-12-02T11:38:54.239Z,1013.15
2017-12-02T11:39:54.250Z,1013.16
2017-12-02T11:40:54.261Z,1013.15
2017-12-02T11:41:54.274Z,1013.15
2017-12-02T11:42:54.288Z,1013.16
2017-12-02T11:43:54.301Z,1013.14
2017-12-02T11:44:54.316Z,1013.17
2017-12-02T11:45:54.326Z,1013.15
2017-12-02T11:46:54.337Z,1013.13
2017-12-02T11:47:54.352Z,1013.13
2017-12-02T11:48:54.363Z,1013.16
2017-12-02T11:49:54.377Z,1013.13
2017-12-02T11:50:54.396Z,1013.16
2017-12-02T11:51:54.402Z,1013.15
2017-12-02T11:52:54.416Z,1013.17
2017-12-02T11:53:54.425Z,1013.16
2017-12-02T11:54:54.439Z,1013.15
2017-12-02T11:55:54.451Z,1013.16
2017-12-02T11:56:54.465Z,1013.2
2017-12-02T11:57:54.478Z,1013.18
2017-12-02T11:58:54.491Z,1013.15
2017-12-02T11:59:54.500Z,1013.13
2017-12-02T12:00:54.517Z,1013.15
2017-12-02T12:01:54.529Z,1013.18
2017-12-02T12:02:54.540Z,1013.19
2017-12-02T12:03:54.552Z,1013.18
2017-12-02T12:04:54.565Z,1013.24
2017-12-02T12:05:54.578Z,1013.23
2017-12-02T12:06:54.592Z,1013.23
2017-12-02T12:07:54.602Z,1013.22
2017-12-02T12:08:54.616Z,1013.28
2017-12-02T12:09:54.631Z,1013.25
2017-12-02T12:10:54.854Z,1013.25
2017-12-02T12:11:54.656Z,1013.21